sensor_id;sensor_type;location;lat;lon;timestamp;P1;durP1;ratioP1;P2;durP2;ratioP2
70866;SDS011;58487;53.474;49.470;2023-06-26T00:00:00;9.93;;;3.30;;
70866;SDS011;58487;53.474;49.470;2023-06-26T00:02:26;6.72;;;3.17;;
70866;SDS011;58487;53.474;49.470;2023-06-26T00:04:51;7.40;;;3.33;;
70866;SDS011;58487;53.474;49.470;2023-06-26T00:07:19;6.90;;;3.40;;
70866;SDS011;58487;53.474;49.470;2023-06-26T00:09:45;6.72;;;3.20;;
70866;SDS011;58487;53.474;49.470;2023-06-26T00:12:11;7.00;;;3.20;;
70866;SDS011;58487;53.474;49.470;2023-06-26T00:14:37;5.70;;;3.20;;
70866;SDS011;58487;53.474;49.470;2023-06-26T00:17:03;7.10;;;3.43;;
70866;SDS011;58487;53.474;49.470;2023-06-26T00:19:30;6.70;;;3.25;;
70866;SDS011;58487;53.474;49.470;2023-06-26T00:21:56;6.43;;;3.15;;
70866;SDS011;58487;53.474;49.470;2023-06-26T00:24:22;7.45;;;3.03;;
70866;SDS011;58487;53.474;49.470;2023-06-26T00:26:48;6.25;;;2.97;;
70866;SDS011;58487;53.474;49.470;2023-06-26T00:29:15;6.40;;;3.40;;
70866;SDS011;58487;53.474;49.470;2023-06-26T00:31:41;7.38;;;3.13;;
70866;SDS011;58487;53.474;49.470;2023-06-26T00:34:07;8.00;;;2.70;;
70866;SDS011;58487;53.474;49.470;2023-06-26T00:36:33;5.70;;;2.72;;
70866;SDS011;58487;53.474;49.470;2023-06-26T00:38:59;9.03;;;2.83;;
70866;SDS011;58487;53.474;49.470;2023-06-26T00:41:25;6.75;;;2.90;;
70866;SDS011;58487;53.474;49.470;2023-06-26T00:43:51;7.50;;;3.35;;
70866;SDS011;58487;53.474;49.470;2023-06-26T00:46:17;8.30;;;3.20;;
70866;SDS011;58487;53.474;49.470;2023-06-26T00:48:43;8.82;;;3.13;;
70866;SDS011;58487;53.474;49.470;2023-06-26T00:51:11;7.20;;;3.20;;
70866;SDS011;58487;53.474;49.470;2023-06-26T00:53:37;7.18;;;3.60;;
70866;SDS011;58487;53.474;49.470;2023-06-26T00:56:03;8.20;;;3.10;;
70866;SDS011;58487;53.474;49.470;2023-06-26T00:58:31;6.32;;;2.80;;
70866;SDS011;58487;53.474;49.470;2023-06-26T01:00:57;7.35;;;2.92;;
70866;SDS011;58487;53.474;49.470;2023-06-26T01:03:23;7.13;;;3.13;;
70866;SDS011;58487;53.474;49.470;2023-06-26T01:05:51;7.18;;;3.00;;
70866;SDS011;58487;53.474;49.470;2023-06-26T01:08:18;11.20;;;2.50;;
70866;SDS011;58487;53.474;49.470;2023-06-26T01:10:45;5.38;;;2.55;;
70866;SDS011;58487;53.474;49.470;2023-06-26T01:13:12;6.00;;;2.83;;
70866;SDS011;58487;53.474;49.470;2023-06-26T01:15:39;6.30;;;3.27;;
70866;SDS011;58487;53.474;49.470;2023-06-26T01:18:05;8.10;;;2.90;;
70866;SDS011;58487;53.474;49.470;2023-06-26T01:20:34;5.72;;;3.17;;
70866;SDS011;58487;53.474;49.470;2023-06-26T01:23:15;9.82;;;3.10;;
70866;SDS011;58487;53.474;49.470;2023-06-26T01:28:49;5.90;;;3.13;;
70866;SDS011;58487;53.474;49.470;2023-06-26T01:31:16;6.72;;;3.13;;
70866;SDS011;58487;53.474;49.470;2023-06-26T01:33:44;6.65;;;3.35;;
70866;SDS011;58487;53.474;49.470;2023-06-26T01:36:11;7.45;;;3.00;;
70866;SDS011;58487;53.474;49.470;2023-06-26T01:38:37;10.25;;;3.78;;
70866;SDS011;58487;53.474;49.470;2023-06-26T01:41:04;8.17;;;3.30;;
70866;SDS011;58487;53.474;49.470;2023-06-26T01:46:09;7.15;;;3.20;;
70866;SDS011;58487;53.474;49.470;2023-06-26T01:48:47;6.88;;;2.90;;
70866;SDS011;58487;53.474;49.470;2023-06-26T01:51:21;6.72;;;3.28;;
70866;SDS011;58487;53.474;49.470;2023-06-26T01:53:53;7.83;;;3.57;;
70866;SDS011;58487;53.474;49.470;2023-06-26T01:56:22;8.00;;;3.47;;
70866;SDS011;58487;53.474;49.470;2023-06-26T01:58:49;7.28;;;3.28;;
70866;SDS011;58487;53.474;49.470;2023-06-26T02:01:20;7.20;;;3.28;;
70866;SDS011;58487;53.474;49.470;2023-06-26T02:03:47;6.47;;;3.00;;
70866;SDS011;58487;53.474;49.470;2023-06-26T02:06:13;7.57;;;2.90;;
70866;SDS011;58487;53.474;49.470;2023-06-26T02:08:39;8.05;;;3.95;;
70866;SDS011;58487;53.474;49.470;2023-06-26T02:11:06;6.53;;;3.13;;
70866;SDS011;58487;53.474;49.470;2023-06-26T02:13:32;8.30;;;3.58;;
70866;SDS011;58487;53.474;49.470;2023-06-26T02:15:58;6.93;;;3.20;;
70866;SDS011;58487;53.474;49.470;2023-06-26T02:18:24;6.45;;;3.22;;
70866;SDS011;58487;53.474;49.470;2023-06-26T02:20:50;8.38;;;3.58;;
70866;SDS011;58487;53.474;49.470;2023-06-26T02:23:16;6.45;;;3.40;;
70866;SDS011;58487;53.474;49.470;2023-06-26T02:25:42;6.95;;;3.30;;
70866;SDS011;58487;53.474;49.470;2023-06-26T02:28:08;6.77;;;3.23;;
70866;SDS011;58487;53.474;49.470;2023-06-26T02:30:34;6.75;;;2.67;;
70866;SDS011;58487;53.474;49.470;2023-06-26T02:33:00;6.57;;;3.00;;
70866;SDS011;58487;53.474;49.470;2023-06-26T02:35:26;8.98;;;3.42;;
70866;SDS011;58487;53.474;49.470;2023-06-26T02:37:53;13.73;;;7.32;;
70866;SDS011;58487;53.474;49.470;2023-06-26T02:40:19;7.63;;;3.47;;
70866;SDS011;58487;53.474;49.470;2023-06-26T02:42:44;6.65;;;3.50;;
70866;SDS011;58487;53.474;49.470;2023-06-26T02:45:10;7.95;;;3.83;;
70866;SDS011;58487;53.474;49.470;2023-06-26T02:47:36;7.63;;;3.50;;
70866;SDS011;58487;53.474;49.470;2023-06-26T02:50:05;7.93;;;3.65;;
70866;SDS011;58487;53.474;49.470;2023-06-26T02:52:32;8.10;;;3.83;;
70866;SDS011;58487;53.474;49.470;2023-06-26T02:54:58;7.03;;;3.65;;
70866;SDS011;58487;53.474;49.470;2023-06-26T02:57:24;9.18;;;3.80;;
70866;SDS011;58487;53.474;49.470;2023-06-26T02:59:50;7.90;;;3.75;;
70866;SDS011;58487;53.474;49.470;2023-06-26T03:02:16;8.10;;;3.93;;
70866;SDS011;58487;53.474;49.470;2023-06-26T03:04:42;9.25;;;3.95;;
70866;SDS011;58487;53.474;49.470;2023-06-26T03:07:08;9.15;;;4.35;;
70866;SDS011;58487;53.474;49.470;2023-06-26T03:09:34;10.25;;;4.47;;
70866;SDS011;58487;53.474;49.470;2023-06-26T03:12:00;8.80;;;4.35;;
70866;SDS011;58487;53.474;49.470;2023-06-26T03:14:26;8.37;;;4.00;;
70866;SDS011;58487;53.474;49.470;2023-06-26T03:16:52;9.73;;;4.90;;
70866;SDS011;58487;53.474;49.470;2023-06-26T03:19:21;12.05;;;5.35;;
70866;SDS011;58487;53.474;49.470;2023-06-26T03:21:47;13.00;;;4.72;;
70866;SDS011;58487;53.474;49.470;2023-06-26T03:24:13;10.77;;;5.63;;
70866;SDS011;58487;53.474;49.470;2023-06-26T03:26:39;11.60;;;5.10;;
70866;SDS011;58487;53.474;49.470;2023-06-26T03:29:05;10.93;;;4.53;;
70866;SDS011;58487;53.474;49.470;2023-06-26T03:31:31;12.20;;;5.57;;
70866;SDS011;58487;53.474;49.470;2023-06-26T03:33:56;12.80;;;5.53;;
70866;SDS011;58487;53.474;49.470;2023-06-26T03:36:22;12.82;;;5.40;;
70866;SDS011;58487;53.474;49.470;2023-06-26T03:38:48;11.52;;;5.40;;
70866;SDS011;58487;53.474;49.470;2023-06-26T03:41:14;10.55;;;5.30;;
70866;SDS011;58487;53.474;49.470;2023-06-26T03:43:40;9.90;;;5.00;;
70866;SDS011;58487;53.474;49.470;2023-06-26T03:46:06;11.82;;;5.40;;
70866;SDS011;58487;53.474;49.470;2023-06-26T03:48:32;14.48;;;6.90;;
70866;SDS011;58487;53.474;49.470;2023-06-26T03:50:58;17.45;;;6.28;;
70866;SDS011;58487;53.474;49.470;2023-06-26T03:53:24;15.33;;;6.27;;
70866;SDS011;58487;53.474;49.470;2023-06-26T03:55:50;14.33;;;7.07;;
70866;SDS011;58487;53.474;49.470;2023-06-26T03:58:16;14.70;;;5.75;;
70866;SDS011;58487;53.474;49.470;2023-06-26T04:00:42;13.80;;;6.05;;
70866;SDS011;58487;53.474;49.470;2023-06-26T04:03:08;13.83;;;6.07;;
70866;SDS011;58487;53.474;49.470;2023-06-26T04:05:34;13.33;;;5.60;;
70866;SDS011;58487;53.474;49.470;2023-06-26T04:08:01;12.98;;;6.38;;
70866;SDS011;58487;53.474;49.470;2023-06-26T04:10:27;15.35;;;6.18;;
70866;SDS011;58487;53.474;49.470;2023-06-26T04:12:53;18.73;;;7.22;;
70866;SDS011;58487;53.474;49.470;2023-06-26T04:15:19;18.47;;;7.37;;
70866;SDS011;58487;53.474;49.470;2023-06-26T04:17:45;12.27;;;6.22;;
70866;SDS011;58487;53.474;49.470;2023-06-26T04:20:12;35.47;;;6.95;;
70866;SDS011;58487;53.474;49.470;2023-06-26T04:22:38;13.27;;;5.93;;
70866;SDS011;58487;53.474;49.470;2023-06-26T04:25:04;15.73;;;6.40;;
70866;SDS011;58487;53.474;49.470;2023-06-26T04:27:30;14.50;;;6.97;;
70866;SDS011;58487;53.474;49.470;2023-06-26T04:29:56;13.63;;;6.47;;
70866;SDS011;58487;53.474;49.470;2023-06-26T04:32:23;22.00;;;6.75;;
70866;SDS011;58487;53.474;49.470;2023-06-26T04:34:49;14.32;;;6.45;;
70866;SDS011;58487;53.474;49.470;2023-06-26T04:37:14;12.70;;;6.53;;
70866;SDS011;58487;53.474;49.470;2023-06-26T04:39:44;17.40;;;7.30;;
70866;SDS011;58487;53.474;49.470;2023-06-26T04:42:10;13.77;;;6.53;;
70866;SDS011;58487;53.474;49.470;2023-06-26T04:44:37;12.10;;;6.15;;
70866;SDS011;58487;53.474;49.470;2023-06-26T04:47:04;11.73;;;5.82;;
70866;SDS011;58487;53.474;49.470;2023-06-26T04:49:29;12.27;;;5.60;;
70866;SDS011;58487;53.474;49.470;2023-06-26T04:51:56;10.73;;;5.97;;
70866;SDS011;58487;53.474;49.470;2023-06-26T04:54:22;12.80;;;5.78;;
70866;SDS011;58487;53.474;49.470;2023-06-26T04:56:48;14.07;;;5.80;;
70866;SDS011;58487;53.474;49.470;2023-06-26T04:59:14;13.48;;;6.30;;
70866;SDS011;58487;53.474;49.470;2023-06-26T05:01:40;9.43;;;4.97;;
70866;SDS011;58487;53.474;49.470;2023-06-26T05:04:06;11.30;;;5.70;;
70866;SDS011;58487;53.474;49.470;2023-06-26T05:06:32;11.90;;;6.15;;
70866;SDS011;58487;53.474;49.470;2023-06-26T05:08:58;12.45;;;6.18;;
70866;SDS011;58487;53.474;49.470;2023-06-26T05:11:25;13.70;;;6.45;;
70866;SDS011;58487;53.474;49.470;2023-06-26T05:13:51;17.88;;;5.90;;
70866;SDS011;58487;53.474;49.470;2023-06-26T05:16:18;11.63;;;5.97;;
70866;SDS011;58487;53.474;49.470;2023-06-26T05:18:44;9.18;;;5.30;;
70866;SDS011;58487;53.474;49.470;2023-06-26T05:21:10;9.73;;;5.70;;
70866;SDS011;58487;53.474;49.470;2023-06-26T05:23:36;11.18;;;5.10;;
70866;SDS011;58487;53.474;49.470;2023-06-26T05:26:02;14.60;;;5.95;;
70866;SDS011;58487;53.474;49.470;2023-06-26T05:28:29;8.50;;;4.50;;
70866;SDS011;58487;53.474;49.470;2023-06-26T05:31:01;11.30;;;5.15;;
70866;SDS011;58487;53.474;49.470;2023-06-26T05:33:30;8.85;;;5.00;;
70866;SDS011;58487;53.474;49.470;2023-06-26T05:36:00;10.98;;;5.95;;
70866;SDS011;58487;53.474;49.470;2023-06-26T05:38:29;9.15;;;4.72;;
70866;SDS011;58487;53.474;49.470;2023-06-26T05:40:56;6.37;;;3.80;;
70866;SDS011;58487;53.474;49.470;2023-06-26T05:43:22;7.88;;;4.22;;
70866;SDS011;58487;53.474;49.470;2023-06-26T05:45:48;9.18;;;4.57;;
70866;SDS011;58487;53.474;49.470;2023-06-26T05:48:14;9.30;;;4.53;;
70866;SDS011;58487;53.474;49.470;2023-06-26T05:50:41;9.65;;;4.95;;
70866;SDS011;58487;53.474;49.470;2023-06-26T05:53:09;10.20;;;5.00;;
70866;SDS011;58487;53.474;49.470;2023-06-26T05:55:35;9.20;;;4.85;;
70866;SDS011;58487;53.474;49.470;2023-06-26T05:58:02;9.07;;;4.10;;
70866;SDS011;58487;53.474;49.470;2023-06-26T06:00:28;8.80;;;4.57;;
70866;SDS011;58487;53.474;49.470;2023-06-26T06:02:55;8.10;;;4.55;;
70866;SDS011;58487;53.474;49.470;2023-06-26T06:05:21;7.70;;;3.73;;
70866;SDS011;58487;53.474;49.470;2023-06-26T06:07:48;10.13;;;5.07;;
70866;SDS011;58487;53.474;49.470;2023-06-26T06:10:15;7.63;;;4.32;;
70866;SDS011;58487;53.474;49.470;2023-06-26T06:12:42;11.95;;;5.57;;
70866;SDS011;58487;53.474;49.470;2023-06-26T06:15:08;7.68;;;4.90;;
70866;SDS011;58487;53.474;49.470;2023-06-26T06:17:34;8.43;;;5.00;;
70866;SDS011;58487;53.474;49.470;2023-06-26T06:20:00;7.65;;;4.10;;
70866;SDS011;58487;53.474;49.470;2023-06-26T06:22:26;7.85;;;4.57;;
70866;SDS011;58487;53.474;49.470;2023-06-26T06:24:52;7.45;;;4.50;;
70866;SDS011;58487;53.474;49.470;2023-06-26T06:27:18;7.95;;;4.53;;
70866;SDS011;58487;53.474;49.470;2023-06-26T06:29:44;7.30;;;4.40;;
70866;SDS011;58487;53.474;49.470;2023-06-26T06:32:10;9.90;;;4.47;;
70866;SDS011;58487;53.474;49.470;2023-06-26T06:34:36;9.80;;;4.60;;
70866;SDS011;58487;53.474;49.470;2023-06-26T06:37:02;7.07;;;4.25;;
70866;SDS011;58487;53.474;49.470;2023-06-26T06:39:29;8.48;;;4.80;;
70866;SDS011;58487;53.474;49.470;2023-06-26T06:41:55;7.43;;;4.60;;
70866;SDS011;58487;53.474;49.470;2023-06-26T06:44:21;7.70;;;4.15;;
70866;SDS011;58487;53.474;49.470;2023-06-26T06:46:47;8.68;;;4.78;;
70866;SDS011;58487;53.474;49.470;2023-06-26T06:49:13;10.02;;;5.70;;
70866;SDS011;58487;53.474;49.470;2023-06-26T06:51:39;11.63;;;5.32;;
70866;SDS011;58487;53.474;49.470;2023-06-26T06:54:05;8.87;;;5.20;;
70866;SDS011;58487;53.474;49.470;2023-06-26T06:56:31;6.60;;;3.92;;
70866;SDS011;58487;53.474;49.470;2023-06-26T06:58:57;9.90;;;4.53;;
70866;SDS011;58487;53.474;49.470;2023-06-26T07:01:24;7.20;;;4.18;;
70866;SDS011;58487;53.474;49.470;2023-06-26T07:03:50;9.43;;;5.20;;
70866;SDS011;58487;53.474;49.470;2023-06-26T07:06:16;8.93;;;5.20;;
70866;SDS011;58487;53.474;49.470;2023-06-26T07:08:41;6.93;;;4.60;;
70866;SDS011;58487;53.474;49.470;2023-06-26T07:11:08;7.43;;;4.47;;
70866;SDS011;58487;53.474;49.470;2023-06-26T07:13:34;8.65;;;5.03;;
70866;SDS011;58487;53.474;49.470;2023-06-26T07:16:00;9.25;;;5.03;;
70866;SDS011;58487;53.474;49.470;2023-06-26T07:18:26;7.33;;;4.40;;
70866;SDS011;58487;53.474;49.470;2023-06-26T07:20:52;7.43;;;4.55;;
70866;SDS011;58487;53.474;49.470;2023-06-26T07:23:18;8.38;;;4.50;;
70866;SDS011;58487;53.474;49.470;2023-06-26T07:25:44;8.90;;;4.72;;
70866;SDS011;58487;53.474;49.470;2023-06-26T07:28:11;7.10;;;4.28;;
70866;SDS011;58487;53.474;49.470;2023-06-26T07:30:37;10.43;;;5.07;;
70866;SDS011;58487;53.474;49.470;2023-06-26T07:33:03;8.98;;;4.38;;
70866;SDS011;58487;53.474;49.470;2023-06-26T07:35:30;7.88;;;4.75;;
70866;SDS011;58487;53.474;49.470;2023-06-26T07:37:56;7.80;;;4.60;;
70866;SDS011;58487;53.474;49.470;2023-06-26T07:40:22;8.32;;;5.05;;
70866;SDS011;58487;53.474;49.470;2023-06-26T07:42:48;8.47;;;4.70;;
70866;SDS011;58487;53.474;49.470;2023-06-26T07:45:14;8.65;;;5.68;;
70866;SDS011;58487;53.474;49.470;2023-06-26T07:47:40;7.85;;;4.85;;
70866;SDS011;58487;53.474;49.470;2023-06-26T07:50:06;10.55;;;6.20;;
70866;SDS011;58487;53.474;49.470;2023-06-26T07:52:32;8.68;;;4.28;;
70866;SDS011;58487;53.474;49.470;2023-06-26T07:54:59;8.13;;;4.30;;
70866;SDS011;58487;53.474;49.470;2023-06-26T07:57:25;8.73;;;4.68;;
70866;SDS011;58487;53.474;49.470;2023-06-26T07:59:51;10.90;;;4.95;;
70866;SDS011;58487;53.474;49.470;2023-06-26T08:02:17;8.10;;;4.68;;
70866;SDS011;58487;53.474;49.470;2023-06-26T08:04:43;7.88;;;4.20;;
70866;SDS011;58487;53.474;49.470;2023-06-26T08:07:09;6.87;;;3.93;;
70866;SDS011;58487;53.474;49.470;2023-06-26T08:09:35;7.70;;;4.10;;
70866;SDS011;58487;53.474;49.470;2023-06-26T08:12:03;7.25;;;4.10;;
70866;SDS011;58487;53.474;49.470;2023-06-26T08:14:29;6.40;;;3.75;;
70866;SDS011;58487;53.474;49.470;2023-06-26T08:16:57;7.68;;;4.60;;
70866;SDS011;58487;53.474;49.470;2023-06-26T08:19:25;7.83;;;4.73;;
70866;SDS011;58487;53.474;49.470;2023-06-26T08:21:51;8.95;;;5.68;;
70866;SDS011;58487;53.474;49.470;2023-06-26T08:24:17;11.27;;;4.65;;
70866;SDS011;58487;53.474;49.470;2023-06-26T08:26:44;8.77;;;4.80;;
70866;SDS011;58487;53.474;49.470;2023-06-26T08:29:12;11.18;;;5.13;;
70866;SDS011;58487;53.474;49.470;2023-06-26T08:31:38;8.07;;;4.80;;
70866;SDS011;58487;53.474;49.470;2023-06-26T08:34:05;8.35;;;4.82;;
70866;SDS011;58487;53.474;49.470;2023-06-26T08:36:31;9.30;;;5.28;;
70866;SDS011;58487;53.474;49.470;2023-06-26T08:38:57;7.55;;;4.63;;
70866;SDS011;58487;53.474;49.470;2023-06-26T08:41:24;8.60;;;4.90;;
70866;SDS011;58487;53.474;49.470;2023-06-26T08:43:50;7.50;;;4.93;;
70866;SDS011;58487;53.474;49.470;2023-06-26T08:46:18;9.63;;;5.38;;
70866;SDS011;58487;53.474;49.470;2023-06-26T08:48:47;8.77;;;4.60;;
70866;SDS011;58487;53.474;49.470;2023-06-26T08:51:16;8.10;;;4.75;;
70866;SDS011;58487;53.474;49.470;2023-06-26T08:56:12;8.67;;;4.47;;
70866;SDS011;58487;53.474;49.470;2023-06-26T08:58:43;9.15;;;4.72;;
70866;SDS011;58487;53.474;49.470;2023-06-26T09:01:09;9.00;;;5.10;;
70866;SDS011;58487;53.474;49.470;2023-06-26T09:03:40;8.73;;;5.20;;
70866;SDS011;58487;53.474;49.470;2023-06-26T09:06:07;7.88;;;5.10;;
70866;SDS011;58487;53.474;49.470;2023-06-26T09:08:33;8.77;;;4.43;;
70866;SDS011;58487;53.474;49.470;2023-06-26T09:11:00;9.02;;;5.20;;
70866;SDS011;58487;53.474;49.470;2023-06-26T09:13:28;9.02;;;4.70;;
70866;SDS011;58487;53.474;49.470;2023-06-26T09:15:55;7.93;;;5.00;;
70866;SDS011;58487;53.474;49.470;2023-06-26T09:18:21;7.25;;;5.05;;
70866;SDS011;58487;53.474;49.470;2023-06-26T09:20:48;8.30;;;4.77;;
70866;SDS011;58487;53.474;49.470;2023-06-26T09:23:15;7.95;;;4.88;;
70866;SDS011;58487;53.474;49.470;2023-06-26T09:25:41;7.35;;;4.65;;
70866;SDS011;58487;53.474;49.470;2023-06-26T09:28:08;7.20;;;4.50;;
70866;SDS011;58487;53.474;49.470;2023-06-26T09:30:35;7.45;;;4.97;;
70866;SDS011;58487;53.474;49.470;2023-06-26T09:33:14;7.10;;;4.90;;
70866;SDS011;58487;53.474;49.470;2023-06-26T09:35:46;7.70;;;4.90;;
70866;SDS011;58487;53.474;49.470;2023-06-26T09:38:13;8.55;;;5.40;;
70866;SDS011;58487;53.474;49.470;2023-06-26T09:40:40;8.00;;;5.38;;
70866;SDS011;58487;53.474;49.470;2023-06-26T09:43:07;8.00;;;5.03;;
70866;SDS011;58487;53.474;49.470;2023-06-26T09:45:35;9.73;;;4.90;;
70866;SDS011;58487;53.474;49.470;2023-06-26T09:48:04;7.40;;;5.10;;
70866;SDS011;58487;53.474;49.470;2023-06-26T09:50:32;8.50;;;4.68;;
70866;SDS011;58487;53.474;49.470;2023-06-26T09:53:09;7.53;;;4.95;;
70866;SDS011;58487;53.474;49.470;2023-06-26T09:55:36;9.63;;;5.72;;
70866;SDS011;58487;53.474;49.470;2023-06-26T09:58:03;10.83;;;6.70;;
70866;SDS011;58487;53.474;49.470;2023-06-26T10:00:30;8.05;;;5.30;;
70866;SDS011;58487;53.474;49.470;2023-06-26T10:02:57;7.50;;;5.30;;
70866;SDS011;58487;53.474;49.470;2023-06-26T10:05:24;7.90;;;4.93;;
70866;SDS011;58487;53.474;49.470;2023-06-26T10:07:50;7.30;;;4.97;;
70866;SDS011;58487;53.474;49.470;2023-06-26T10:10:18;7.60;;;5.00;;
70866;SDS011;58487;53.474;49.470;2023-06-26T10:12:46;16.40;;;5.30;;
70866;SDS011;58487;53.474;49.470;2023-06-26T10:15:15;6.55;;;4.18;;
70866;SDS011;58487;53.474;49.470;2023-06-26T10:17:42;7.45;;;4.57;;
70866;SDS011;58487;53.474;49.470;2023-06-26T10:20:11;6.72;;;4.45;;
70866;SDS011;58487;53.474;49.470;2023-06-26T10:22:44;7.30;;;4.60;;
70866;SDS011;58487;53.474;49.470;2023-06-26T10:25:12;7.95;;;4.57;;
70866;SDS011;58487;53.474;49.470;2023-06-26T10:27:43;8.43;;;5.28;;
70866;SDS011;58487;53.474;49.470;2023-06-26T10:30:14;8.05;;;5.53;;
70866;SDS011;58487;53.474;49.470;2023-06-26T10:32:46;8.27;;;5.63;;
70866;SDS011;58487;53.474;49.470;2023-06-26T10:35:12;6.07;;;4.10;;
70866;SDS011;58487;53.474;49.470;2023-06-26T10:37:47;7.57;;;4.90;;
70866;SDS011;58487;53.474;49.470;2023-06-26T10:40:15;7.88;;;5.00;;
70866;SDS011;58487;53.474;49.470;2023-06-26T10:42:47;8.30;;;5.68;;
70866;SDS011;58487;53.474;49.470;2023-06-26T10:45:14;8.65;;;5.65;;
70866;SDS011;58487;53.474;49.470;2023-06-26T10:47:46;8.17;;;5.23;;
70866;SDS011;58487;53.474;49.470;2023-06-26T10:50:18;7.43;;;5.07;;
70866;SDS011;58487;53.474;49.470;2023-06-26T10:55:39;7.80;;;5.70;;
70866;SDS011;58487;53.474;49.470;2023-06-26T10:58:50;7.20;;;4.95;;
70866;SDS011;58487;53.474;49.470;2023-06-26T11:03:42;8.68;;;5.32;;
70866;SDS011;58487;53.474;49.470;2023-06-26T11:06:11;10.05;;;4.90;;
70866;SDS011;58487;53.474;49.470;2023-06-26T11:08:52;8.38;;;5.30;;
70866;SDS011;58487;53.474;49.470;2023-06-26T11:11:21;7.53;;;4.97;;
70866;SDS011;58487;53.474;49.470;2023-06-26T11:14:08;7.40;;;5.30;;
70866;SDS011;58487;53.474;49.470;2023-06-26T11:16:34;7.88;;;5.65;;
70866;SDS011;58487;53.474;49.470;2023-06-26T11:19:00;7.53;;;5.28;;
70866;SDS011;58487;53.474;49.470;2023-06-26T11:21:27;8.93;;;6.72;;
70866;SDS011;58487;53.474;49.470;2023-06-26T11:23:53;7.95;;;5.32;;
70866;SDS011;58487;53.474;49.470;2023-06-26T11:26:23;8.03;;;5.60;;
70866;SDS011;58487;53.474;49.470;2023-06-26T11:28:55;7.20;;;5.07;;
70866;SDS011;58487;53.474;49.470;2023-06-26T11:33:58;7.63;;;5.40;;
70866;SDS011;58487;53.474;49.470;2023-06-26T11:36:25;6.65;;;4.85;;
70866;SDS011;58487;53.474;49.470;2023-06-26T11:38:56;11.17;;;5.30;;
70866;SDS011;58487;53.474;49.470;2023-06-26T11:41:24;6.97;;;4.60;;
70866;SDS011;58487;53.474;49.470;2023-06-26T11:43:52;7.10;;;5.10;;
70866;SDS011;58487;53.474;49.470;2023-06-26T11:46:19;7.00;;;5.05;;
70866;SDS011;58487;53.474;49.470;2023-06-26T11:48:46;6.78;;;4.80;;
70866;SDS011;58487;53.474;49.470;2023-06-26T11:51:13;7.45;;;4.97;;
70866;SDS011;58487;53.474;49.470;2023-06-26T11:53:43;7.53;;;4.90;;
70866;SDS011;58487;53.474;49.470;2023-06-26T11:56:14;6.45;;;4.50;;
70866;SDS011;58487;53.474;49.470;2023-06-26T12:01:35;7.05;;;4.53;;
70866;SDS011;58487;53.474;49.470;2023-06-26T12:04:05;6.90;;;4.95;;
70866;SDS011;58487;53.474;49.470;2023-06-26T12:06:36;5.70;;;4.00;;
70866;SDS011;58487;53.474;49.470;2023-06-26T12:09:10;6.10;;;4.40;;
70866;SDS011;58487;53.474;49.470;2023-06-26T12:11:39;6.85;;;5.15;;
70866;SDS011;58487;53.474;49.470;2023-06-26T12:14:07;7.20;;;4.45;;
70866;SDS011;58487;53.474;49.470;2023-06-26T12:16:34;6.97;;;4.85;;
70866;SDS011;58487;53.474;49.470;2023-06-26T12:19:02;6.57;;;4.80;;
70866;SDS011;58487;53.474;49.470;2023-06-26T12:24:02;7.07;;;5.20;;
70866;SDS011;58487;53.474;49.470;2023-06-26T12:26:29;7.13;;;4.40;;
70866;SDS011;58487;53.474;49.470;2023-06-26T12:29:06;8.63;;;4.15;;
70866;SDS011;58487;53.474;49.470;2023-06-26T12:31:32;6.50;;;4.10;;
70866;SDS011;58487;53.474;49.470;2023-06-26T12:34:02;6.67;;;3.83;;
70866;SDS011;58487;53.474;49.470;2023-06-26T12:36:45;8.27;;;3.90;;
70866;SDS011;58487;53.474;49.470;2023-06-26T12:39:18;6.10;;;3.92;;
70866;SDS011;58487;53.474;49.470;2023-06-26T12:41:54;8.15;;;3.92;;
70866;SDS011;58487;53.474;49.470;2023-06-26T12:44:28;5.97;;;4.07;;
70866;SDS011;58487;53.474;49.470;2023-06-26T12:46:56;6.30;;;3.93;;
70866;SDS011;58487;53.474;49.470;2023-06-26T12:49:36;5.83;;;3.70;;
70866;SDS011;58487;53.474;49.470;2023-06-26T12:52:04;5.80;;;3.97;;
70866;SDS011;58487;53.474;49.470;2023-06-26T12:54:32;5.25;;;3.30;;
70866;SDS011;58487;53.474;49.470;2023-06-26T12:56:59;6.28;;;3.58;;
70866;SDS011;58487;53.474;49.470;2023-06-26T12:59:25;5.32;;;3.03;;
70866;SDS011;58487;53.474;49.470;2023-06-26T13:01:52;5.90;;;3.70;;
70866;SDS011;58487;53.474;49.470;2023-06-26T13:04:18;5.80;;;3.97;;
70866;SDS011;58487;53.474;49.470;2023-06-26T13:06:44;5.93;;;3.80;;
70866;SDS011;58487;53.474;49.470;2023-06-26T13:09:10;6.28;;;3.65;;
70866;SDS011;58487;53.474;49.470;2023-06-26T13:11:37;5.95;;;3.90;;
70866;SDS011;58487;53.474;49.470;2023-06-26T13:14:03;8.53;;;4.70;;
70866;SDS011;58487;53.474;49.470;2023-06-26T13:16:29;5.50;;;3.60;;
70866;SDS011;58487;53.474;49.470;2023-06-26T13:18:57;7.07;;;3.60;;
70866;SDS011;58487;53.474;49.470;2023-06-26T13:21:24;10.15;;;3.88;;
70866;SDS011;58487;53.474;49.470;2023-06-26T13:23:50;6.10;;;3.85;;
70866;SDS011;58487;53.474;49.470;2023-06-26T13:26:16;6.13;;;3.60;;
70866;SDS011;58487;53.474;49.470;2023-06-26T13:28:42;6.73;;;3.23;;
70866;SDS011;58487;53.474;49.470;2023-06-26T13:31:10;6.28;;;3.35;;
70866;SDS011;58487;53.474;49.470;2023-06-26T13:33:36;7.03;;;3.70;;
70866;SDS011;58487;53.474;49.470;2023-06-26T13:36:02;6.18;;;3.58;;
70866;SDS011;58487;53.474;49.470;2023-06-26T13:38:32;6.28;;;3.90;;
70866;SDS011;58487;53.474;49.470;2023-06-26T13:40:59;5.33;;;3.17;;
70866;SDS011;58487;53.474;49.470;2023-06-26T13:43:28;9.02;;;4.20;;
70866;SDS011;58487;53.474;49.470;2023-06-26T13:45:55;7.90;;;3.53;;
70866;SDS011;58487;53.474;49.470;2023-06-26T13:48:21;5.80;;;3.60;;
70866;SDS011;58487;53.474;49.470;2023-06-26T13:50:49;5.60;;;3.80;;
70866;SDS011;58487;53.474;49.470;2023-06-26T13:53:16;6.83;;;4.53;;
70866;SDS011;58487;53.474;49.470;2023-06-26T13:55:42;6.67;;;4.13;;
70866;SDS011;58487;53.474;49.470;2023-06-26T13:58:08;6.80;;;3.30;;
70866;SDS011;58487;53.474;49.470;2023-06-26T14:00:35;5.97;;;3.33;;
70866;SDS011;58487;53.474;49.470;2023-06-26T14:03:02;6.20;;;3.72;;
70866;SDS011;58487;53.474;49.470;2023-06-26T14:05:30;5.55;;;3.75;;
70866;SDS011;58487;53.474;49.470;2023-06-26T14:07:56;5.73;;;3.57;;
70866;SDS011;58487;53.474;49.470;2023-06-26T14:10:22;5.30;;;3.50;;
70866;SDS011;58487;53.474;49.470;2023-06-26T14:12:49;7.65;;;4.00;;
70866;SDS011;58487;53.474;49.470;2023-06-26T14:15:15;8.60;;;4.28;;
70866;SDS011;58487;53.474;49.470;2023-06-26T14:17:41;6.30;;;3.67;;
70866;SDS011;58487;53.474;49.470;2023-06-26T14:20:08;6.00;;;3.70;;
70866;SDS011;58487;53.474;49.470;2023-06-26T14:22:38;5.73;;;4.00;;
70866;SDS011;58487;53.474;49.470;2023-06-26T14:25:06;6.82;;;4.35;;
70866;SDS011;58487;53.474;49.470;2023-06-26T14:27:33;7.90;;;4.03;;
70866;SDS011;58487;53.474;49.470;2023-06-26T14:29:59;7.45;;;3.78;;
70866;SDS011;58487;53.474;49.470;2023-06-26T14:32:25;8.73;;;3.60;;
70866;SDS011;58487;53.474;49.470;2023-06-26T14:34:51;6.80;;;3.73;;
70866;SDS011;58487;53.474;49.470;2023-06-26T14:37:17;6.45;;;3.78;;
70866;SDS011;58487;53.474;49.470;2023-06-26T14:39:44;6.63;;;4.10;;
70866;SDS011;58487;53.474;49.470;2023-06-26T14:42:10;6.60;;;3.80;;
70866;SDS011;58487;53.474;49.470;2023-06-26T14:44:38;6.18;;;3.47;;
70866;SDS011;58487;53.474;49.470;2023-06-26T14:47:04;9.50;;;3.90;;
70866;SDS011;58487;53.474;49.470;2023-06-26T14:49:30;7.53;;;3.58;;
70866;SDS011;58487;53.474;49.470;2023-06-26T14:51:56;9.02;;;3.95;;